sensor_id;sensor_type;location;lat;lon;timestamp;temperature;humidity
33715;DHT22;20043;50.998;4.754;2022-09-09T00:04:28;16.90;99.90
33715;DHT22;20043;50.998;4.754;2022-09-09T00:09:31;16.90;99.90
33715;DHT22;20043;50.998;4.754;2022-09-09T00:12:12;17.00;99.90
33715;DHT22;20043;50.998;4.754;2022-09-09T00:17:47;16.80;99.90
33715;DHT22;20043;50.998;4.754;2022-09-09T00:23:10;16.90;99.90
33715;DHT22;20043;50.998;4.754;2022-09-09T00:25:50;16.90;99.90
33715;DHT22;20043;50.998;4.754;2022-09-09T00:28:23;17.00;99.90
33715;DHT22;20043;50.998;4.754;2022-09-09T00:30:50;17.00;99.90
33715;DHT22;20043;50.998;4.754;2022-09-09T00:33:18;17.00;99.90
33715;DHT22;20043;50.998;4.754;2022-09-09T00:35:56;16.90;99.90
33715;DHT22;20043;50.998;4.754;2022-09-09T00:41:03;16.90;99.90
33715;DHT22;20043;50.998;4.754;2022-09-09T00:43:36;16.90;99.90
33715;DHT22;20043;50.998;4.754;2022-09-09T00:46:33;17.00;99.90
33715;DHT22;20043;50.998;4.754;2022-09-09T00:49:15;16.90;99.90
33715;DHT22;20043;50.998;4.754;2022-09-09T00:55:06;16.80;99.90
33715;DHT22;20043;50.998;4.754;2022-09-09T00:57:35;16.80;99.90
33715;DHT22;20043;50.998;4.754;2022-09-09T01:11:37;16.80;99.90
33715;DHT22;20043;50.998;4.754;2022-09-09T01:16:46;16.80;99.90
33715;DHT22;20043;50.998;4.754;2022-09-09T01:19:20;16.90;99.90
33715;DHT22;20043;50.998;4.754;2022-09-09T01:22:01;16.90;99.90
33715;DHT22;20043;50.998;4.754;2022-09-09T01:27:35;17.00;99.90
33715;DHT22;20043;50.998;4.754;2022-09-09T01:30:04;16.90;99.90
33715;DHT22;20043;50.998;4.754;2022-09-09T01:32:54;16.90;99.90
33715;DHT22;20043;50.998;4.754;2022-09-09T01:35:59;16.90;99.90
33715;DHT22;20043;50.998;4.754;2022-09-09T01:38:27;16.90;99.90
33715;DHT22;20043;50.998;4.754;2022-09-09T01:40:53;17.00;99.90
33715;DHT22;20043;50.998;4.754;2022-09-09T01:43:23;16.90;99.90
33715;DHT22;20043;50.998;4.754;2022-09-09T01:45:52;16.80;99.90
33715;DHT22;20043;50.998;4.754;2022-09-09T01:48:20;16.80;99.90
33715;DHT22;20043;50.998;4.754;2022-09-09T01:50:46;16.80;99.90
33715;DHT22;20043;50.998;4.754;2022-09-09T01:53:13;16.80;99.90
33715;DHT22;20043;50.998;4.754;2022-09-09T01:55:41;16.80;99.90
33715;DHT22;20043;50.998;4.754;2022-09-09T01:58:34;16.80;99.90
33715;DHT22;20043;50.998;4.754;2022-09-09T02:03:37;16.90;99.90
33715;DHT22;20043;50.998;4.754;2022-09-09T02:08:50;17.00;99.90
33715;DHT22;20043;50.998;4.754;2022-09-09T02:11:18;17.00;99.90
33715;DHT22;20043;50.998;4.754;2022-09-09T02:13:47;16.90;99.90
33715;DHT22;20043;50.998;4.754;2022-09-09T02:16:30;17.00;99.90
33715;DHT22;20043;50.998;4.754;2022-09-09T02:19:02;17.00;99.90
33715;DHT22;20043;50.998;4.754;2022-09-09T02:21:32;17.10;99.90
33715;DHT22;20043;50.998;4.754;2022-09-09T02:24:03;17.10;99.90
33715;DHT22;20043;50.998;4.754;2022-09-09T02:26:31;16.90;99.90
33715;DHT22;20043;50.998;4.754;2022-09-09T02:29:00;17.00;99.90
33715;DHT22;20043;50.998;4.754;2022-09-09T02:31:27;16.90;99.90
33715;DHT22;20043;50.998;4.754;2022-09-09T02:33:56;16.80;99.90
33715;DHT22;20043;50.998;4.754;2022-09-09T02:36:24;16.80;99.90
33715;DHT22;20043;50.998;4.754;2022-09-09T02:38:52;16.90;99.90
33715;DHT22;20043;50.998;4.754;2022-09-09T02:41:35;16.80;99.90
33715;DHT22;20043;50.998;4.754;2022-09-09T02:44:08;16.60;99.90
33715;DHT22;20043;50.998;4.754;2022-09-09T02:49:44;16.70;99.90
33715;DHT22;20043;50.998;4.754;2022-09-09T02:52:14;16.80;99.90
33715;DHT22;20043;50.998;4.754;2022-09-09T02:54:43;16.70;99.90
33715;DHT22;20043;50.998;4.754;2022-09-09T02:57:17;16.60;99.90
33715;DHT22;20043;50.998;4.754;2022-09-09T02:59:45;16.80;99.90
33715;DHT22;20043;50.998;4.754;2022-09-09T03:02:12;16.90;99.90
33715;DHT22;20043;50.998;4.754;2022-09-09T03:04:39;16.80;99.90
33715;DHT22;20043;50.998;4.754;2022-09-09T03:07:04;16.80;99.90
33715;DHT22;20043;50.998;4.754;2022-09-09T03:09:31;16.70;99.90
33715;DHT22;20043;50.998;4.754;2022-09-09T03:11:58;16.70;99.90
33715;DHT22;20043;50.998;4.754;2022-09-09T03:14:23;16.80;99.90
33715;DHT22;20043;50.998;4.754;2022-09-09T03:16:53;16.80;99.90
33715;DHT22;20043;50.998;4.754;2022-09-09T03:19:19;16.70;99.90
33715;DHT22;20043;50.998;4.754;2022-09-09T03:21:46;16.60;99.90
33715;DHT22;20043;50.998;4.754;2022-09-09T03:24:13;16.80;99.90
33715;DHT22;20043;50.998;4.754;2022-09-09T03:26:39;16.90;99.90
33715;DHT22;20043;50.998;4.754;2022-09-09T03:29:06;17.00;99.90
33715;DHT22;20043;50.998;4.754;2022-09-09T03:31:35;17.00;99.90
33715;DHT22;20043;50.998;4.754;2022-09-09T03:34:02;16.90;99.90
33715;DHT22;20043;50.998;4.754;2022-09-09T03:36:28;16.80;99.90
33715;DHT22;20043;50.998;4.754;2022-09-09T03:38:54;16.70;99.90
33715;DHT22;20043;50.998;4.754;2022-09-09T03:41:21;16.80;99.90
33715;DHT22;20043;50.998;4.754;2022-09-09T03:43:50;16.60;99.90
33715;DHT22;20043;50.998;4.754;2022-09-09T03:46:16;16.60;99.90
33715;DHT22;20043;50.998;4.754;2022-09-09T03:48:42;16.70;99.90
33715;DHT22;20043;50.998;4.754;2022-09-09T03:51:07;16.70;99.90
33715;DHT22;20043;50.998;4.754;2022-09-09T03:53:33;16.60;99.90
33715;DHT22;20043;50.998;4.754;2022-09-09T03:55:59;16.60;99.90
33715;DHT22;20043;50.998;4.754;2022-09-09T03:58:26;16.60;99.90
33715;DHT22;20043;50.998;4.754;2022-09-09T04:00:56;16.70;99.90
33715;DHT22;20043;50.998;4.754;2022-09-09T04:03:23;16.80;99.90
33715;DHT22;20043;50.998;4.754;2022-09-09T04:05:51;16.70;99.90
33715;DHT22;20043;50.998;4.754;2022-09-09T04:08:17;16.60;99.90
33715;DHT22;20043;50.998;4.754;2022-09-09T04:10:45;16.50;99.90
33715;DHT22;20043;50.998;4.754;2022-09-09T04:13:12;16.60;99.90
33715;DHT22;20043;50.998;4.754;2022-09-09T04:15:40;16.70;99.90
33715;DHT22;20043;50.998;4.754;2022-09-09T04:18:06;16.60;99.90
33715;DHT22;20043;50.998;4.754;2022-09-09T04:20:32;16.60;99.90
33715;DHT22;20043;50.998;4.754;2022-09-09T04:22:58;16.60;99.90
33715;DHT22;20043;50.998;4.754;2022-09-09T04:25:24;16.50;99.90
33715;DHT22;20043;50.998;4.754;2022-09-09T04:27:56;16.40;99.90
33715;DHT22;20043;50.998;4.754;2022-09-09T04:30:23;16.40;99.90
33715;DHT22;20043;50.998;4.754;2022-09-09T04:32:49;16.40;99.90
33715;DHT22;20043;50.998;4.754;2022-09-09T04:35:15;16.40;99.90
33715;DHT22;20043;50.998;4.754;2022-09-09T04:37:41;16.40;99.90
33715;DHT22;20043;50.998;4.754;2022-09-09T04:40:07;16.40;99.90
33715;DHT22;20043;50.998;4.754;2022-09-09T04:42:35;16.40;99.90
33715;DHT22;20043;50.998;4.754;2022-09-09T04:45:02;16.30;99.90
33715;DHT22;20043;50.998;4.754;2022-09-09T04:47:28;16.30;99.90
33715;DHT22;20043;50.998;4.754;2022-09-09T04:49:53;16.50;99.90
33715;DHT22;20043;50.998;4.754;2022-09-09T04:52:20;16.50;99.90
33715;DHT22;20043;50.998;4.754;2022-09-09T04:54:46;16.50;99.90
33715;DHT22;20043;50.998;4.754;2022-09-09T04:57:12;16.50;99.90
33715;DHT22;20043;50.998;4.754;2022-09-09T04:59:37;16.50;99.90
33715;DHT22;20043;50.998;4.754;2022-09-09T05:02:04;16.40;99.90
33715;DHT22;20043;50.998;4.754;2022-09-09T05:04:30;16.40;99.90
33715;DHT22;20043;50.998;4.754;2022-09-09T05:06:56;16.30;99.90
33715;DHT22;20043;50.998;4.754;2022-09-09T05:09:21;16.30;99.90
33715;DHT22;20043;50.998;4.754;2022-09-09T05:11:47;16.30;99.90
33715;DHT22;20043;50.998;4.754;2022-09-09T05:14:13;16.30;99.90
33715;DHT22;20043;50.998;4.754;2022-09-09T05:16:40;16.30;99.90
33715;DHT22;20043;50.998;4.754;2022-09-09T05:19:06;16.30;99.90
33715;DHT22;20043;50.998;4.754;2022-09-09T05:21:33;16.40;99.90
33715;DHT22;20043;50.998;4.754;2022-09-09T05:23:59;16.50;99.90
33715;DHT22;20043;50.998;4.754;2022-09-09T05:26:26;16.40;99.90
33715;DHT22;20043;50.998;4.754;2022-09-09T05:28:52;16.30;99.90
33715;DHT22;20043;50.998;4.754;2022-09-09T05:31:18;16.30;99.90
33715;DHT22;20043;50.998;4.754;2022-09-09T05:33:45;16.40;99.90
33715;DHT22;20043;50.998;4.754;2022-09-09T05:36:14;16.40;99.90
33715;DHT22;20043;50.998;4.754;2022-09-09T05:38:40;16.40;99.90
33715;DHT22;20043;50.998;4.754;2022-09-09T05:41:07;16.40;99.90
33715;DHT22;20043;50.998;4.754;2022-09-09T05:43:33;16.40;99.90
33715;DHT22;20043;50.998;4.754;2022-09-09T05:46:18;16.40;99.90
33715;DHT22;20043;50.998;4.754;2022-09-09T05:48:46;16.60;99.90
33715;DHT22;20043;50.998;4.754;2022-09-09T05:51:13;16.80;99.90
33715;DHT22;20043;50.998;4.754;2022-09-09T05:53:41;17.20;99.90
33715;DHT22;20043;50.998;4.754;2022-09-09T05:56:09;17.50;99.90
33715;DHT22;20043;50.998;4.754;2022-09-09T05:58:38;17.80;99.90
33715;DHT22;20043;50.998;4.754;2022-09-09T06:01:12;17.90;99.90
33715;DHT22;20043;50.998;4.754;2022-09-09T06:03:42;18.20;99.90
33715;DHT22;20043;50.998;4.754;2022-09-09T06:06:11;18.60;99.90
33715;DHT22;20043;50.998;4.754;2022-09-09T06:08:39;18.60;99.90
33715;DHT22;20043;50.998;4.754;2022-09-09T06:11:06;18.60;99.90
33715;DHT22;20043;50.998;4.754;2022-09-09T06:13:32;18.60;99.90
33715;DHT22;20043;50.998;4.754;2022-09-09T06:15:58;18.30;99.90
33715;DHT22;20043;50.998;4.754;2022-09-09T06:18:25;18.20;99.90
33715;DHT22;20043;50.998;4.754;2022-09-09T06:23:20;17.70;99.90
33715;DHT22;20043;50.998;4.754;2022-09-09T06:25:46;17.60;99.90
33715;DHT22;20043;50.998;4.754;2022-09-09T06:28:11;17.50;99.90
33715;DHT22;20043;50.998;4.754;2022-09-09T06:30:37;17.40;99.90
33715;DHT22;20043;50.998;4.754;2022-09-09T06:33:03;17.30;99.90
33715;DHT22;20043;50.998;4.754;2022-09-09T06:35:29;17.30;99.90
33715;DHT22;20043;50.998;4.754;2022-09-09T06:37:55;17.30;99.90
33715;DHT22;20043;50.998;4.754;2022-09-09T06:40:20;17.40;99.90
33715;DHT22;20043;50.998;4.754;2022-09-09T06:42:46;17.40;99.90
33715;DHT22;20043;50.998;4.754;2022-09-09T06:45:12;17.50;99.90
33715;DHT22;20043;50.998;4.754;2022-09-09T06:47:37;17.50;99.90
33715;DHT22;20043;50.998;4.754;2022-09-09T06:50:03;17.40;99.90
33715;DHT22;20043;50.998;4.754;2022-09-09T06:52:29;17.40;99.90
33715;DHT22;20043;50.998;4.754;2022-09-09T06:54:54;17.30;99.90
33715;DHT22;20043;50.998;4.754;2022-09-09T06:57:20;17.30;99.90
33715;DHT22;20043;50.998;4.754;2022-09-09T06:59:46;17.30;99.90
33715;DHT22;20043;50.998;4.754;2022-09-09T07:02:11;17.40;99.90
33715;DHT22;20043;50.998;4.754;2022-09-09T07:04:37;17.50;99.90
33715;DHT22;20043;50.998;4.754;2022-09-09T07:07:02;17.50;99.90
33715;DHT22;20043;50.998;4.754;2022-09-09T07:09:28;17.50;99.90
33715;DHT22;20043;50.998;4.754;2022-09-09T07:11:55;17.60;99.90
33715;DHT22;20043;50.998;4.754;2022-09-09T07:14:20;17.50;99.90
33715;DHT22;20043;50.998;4.754;2022-09-09T07:16:47;17.40;99.90
33715;DHT22;20043;50.998;4.754;2022-09-09T07:19:13;17.40;99.90
33715;DHT22;20043;50.998;4.754;2022-09-09T07:21:40;17.40;99.90
33715;DHT22;20043;50.998;4.754;2022-09-09T07:24:06;17.50;99.90
33715;DHT22;20043;50.998;4.754;2022-09-09T07:26:35;17.50;99.90
33715;DHT22;20043;50.998;4.754;2022-09-09T07:29:01;17.60;99.90
33715;DHT22;20043;50.998;4.754;2022-09-09T07:31:29;17.70;99.90
33715;DHT22;20043;50.998;4.754;2022-09-09T07:33:56;17.60;99.90
33715;DHT22;20043;50.998;4.754;2022-09-09T07:36:27;17.50;99.90
33715;DHT22;20043;50.998;4.754;2022-09-09T07:38:55;17.40;99.90
33715;DHT22;20043;50.998;4.754;2022-09-09T07:41:27;17.40;99.90
33715;DHT22;20043;50.998;4.754;2022-09-09T07:43:54;17.30;99.90
33715;DHT22;20043;50.998;4.754;2022-09-09T07:46:21;17.30;99.90
33715;DHT22;20043;50.998;4.754;2022-09-09T07:48:49;17.40;99.90
33715;DHT22;20043;50.998;4.754;2022-09-09T07:51:22;17.40;99.90
33715;DHT22;20043;50.998;4.754;2022-09-09T07:53:51;17.40;99.90
33715;DHT22;20043;50.998;4.754;2022-09-09T07:56:18;17.40;99.90
33715;DHT22;20043;50.998;4.754;2022-09-09T07:58:47;17.50;99.90
33715;DHT22;20043;50.998;4.754;2022-09-09T08:01:19;17.50;99.90
33715;DHT22;20043;50.998;4.754;2022-09-09T08:03:46;17.50;99.90
33715;DHT22;20043;50.998;4.754;2022-09-09T08:06:13;17.60;99.90
33715;DHT22;20043;50.998;4.754;2022-09-09T08:08:39;17.60;99.90
33715;DHT22;20043;50.998;4.754;2022-09-09T08:11:10;17.40;99.90
33715;DHT22;20043;50.998;4.754;2022-09-09T08:13:38;17.40;99.90
33715;DHT22;20043;50.998;4.754;2022-09-09T08:16:09;17.50;99.90
33715;DHT22;20043;50.998;4.754;2022-09-09T08:18:37;17.50;99.90
33715;DHT22;20043;50.998;4.754;2022-09-09T08:21:08;17.50;99.90
33715;DHT22;20043;50.998;4.754;2022-09-09T08:23:34;17.60;99.90
33715;DHT22;20043;50.998;4.754;2022-09-09T08:26:05;17.60;99.90
33715;DHT22;20043;50.998;4.754;2022-09-09T08:28:31;17.60;99.90
33715;DHT22;20043;50.998;4.754;2022-09-09T08:31:11;17.60;99.90
33715;DHT22;20043;50.998;4.754;2022-09-09T08:33:37;17.60;99.90
33715;DHT22;20043;50.998;4.754;2022-09-09T08:36:05;17.60;99.90
33715;DHT22;20043;50.998;4.754;2022-09-09T08:38:31;17.70;99.90
33715;DHT22;20043;50.998;4.754;2022-09-09T08:50:13;18.00;99.90
33715;DHT22;20043;50.998;4.754;2022-09-09T08:53:11;18.00;99.90
33715;DHT22;20043;50.998;4.754;2022-09-09T08:55:53;18.00;99.90
33715;DHT22;20043;50.998;4.754;2022-09-09T08:58:21;18.10;99.90
33715;DHT22;20043;50.998;4.754;2022-09-09T09:09:21;17.90;99.90
33715;DHT22;20043;50.998;4.754;2022-09-09T09:11:53;17.90;99.90
33715;DHT22;20043;50.998;4.754;2022-09-09T09:14:20;18.00;99.90
33715;DHT22;20043;50.998;4.754;2022-09-09T09:16:58;18.00;99.90
33715;DHT22;20043;50.998;4.754;2022-09-09T09:19:26;17.80;99.90
33715;DHT22;20043;50.998;4.754;2022-09-09T09:25:14;17.80;99.90
33715;DHT22;20043;50.998;4.754;2022-09-09T09:30:56;17.80;99.90
33715;DHT22;20043;50.998;4.754;2022-09-09T09:35:49;17.70;99.90
33715;DHT22;20043;50.998;4.754;2022-09-09T09:38:23;17.70;99.90
33715;DHT22;20043;50.998;4.754;2022-09-09T09:40:54;17.50;99.90
33715;DHT22;20043;50.998;4.754;2022-09-09T09:43:34;17.50;99.90
33715;DHT22;20043;50.998;4.754;2022-09-09T09:46:03;17.60;99.90
33715;DHT22;20043;50.998;4.754;2022-09-09T09:48:29;17.60;99.90
33715;DHT22;20043;50.998;4.754;2022-09-09T09:50:58;17.60;99.90
33715;DHT22;20043;50.998;4.754;2022-09-09T09:53:30;17.70;99.90
33715;DHT22;20043;50.998;4.754;2022-09-09T09:58:26;17.70;99.90
33715;DHT22;20043;50.998;4.754;2022-09-09T10:00:53;17.80;99.90
33715;DHT22;20043;50.998;4.754;2022-09-09T10:03:33;17.80;99.90
33715;DHT22;20043;50.998;4.754;2022-09-09T10:06:03;17.80;99.90
33715;DHT22;20043;50.998;4.754;2022-09-09T10:08:33;17.80;99.90
33715;DHT22;20043;50.998;4.754;2022-09-09T10:14:39;17.70;99.90
33715;DHT22;20043;50.998;4.754;2022-09-09T10:19:34;17.60;99.90
33715;DHT22;20043;50.998;4.754;2022-09-09T10:30:20;17.60;99.90
33715;DHT22;20043;50.998;4.754;2022-09-09T10:33:01;17.50;99.90
33715;DHT22;20043;50.998;4.754;2022-09-09T10:35:44;17.50;99.90
33715;DHT22;20043;50.998;4.754;2022-09-09T10:46:47;17.70;99.90
33715;DHT22;20043;50.998;4.754;2022-09-09T11:00:05;18.10;99.90
33715;DHT22;20043;50.998;4.754;2022-09-09T11:02:33;18.20;99.90
33715;DHT22;20043;50.998;4.754;2022-09-09T11:05:08;18.30;99.90
33715;DHT22;20043;50.998;4.754;2022-09-09T11:07:42;18.60;99.90
33715;DHT22;20043;50.998;4.754;2022-09-09T11:10:26;18.60;99.90
33715;DHT22;20043;50.998;4.754;2022-09-09T11:13:00;18.70;99.90
33715;DHT22;20043;50.998;4.754;2022-09-09T11:15:45;18.70;99.90
33715;DHT22;20043;50.998;4.754;2022-09-09T11:18:19;18.80;99.90
33715;DHT22;20043;50.998;4.754;2022-09-09T11:20:54;18.90;99.90
33715;DHT22;20043;50.998;4.754;2022-09-09T11:23:31;18.90;99.90
33715;DHT22;20043;50.998;4.754;2022-09-09T11:26:01;19.00;99.90
33715;DHT22;20043;50.998;4.754;2022-09-09T11:34:17;18.90;99.90
33715;DHT22;20043;50.998;4.754;2022-09-09T11:41:52;18.90;99.90
33715;DHT22;20043;50.998;4.754;2022-09-09T11:44:26;18.90;99.90
33715;DHT22;20043;50.998;4.754;2022-09-09T11:46:53;19.00;99.90
33715;DHT22;20043;50.998;4.754;2022-09-09T11:49:43;19.00;99.90
33715;DHT22;20043;50.998;4.754;2022-09-09T11:52:41;19.00;99.90
33715;DHT22;20043;50.998;4.754;2022-09-09T11:55:34;19.00;99.90
33715;DHT22;20043;50.998;4.754;2022-09-09T12:00:46;19.50;99.90
33715;DHT22;20043;50.998;4.754;2022-09-09T12:05:59;19.80;99.90
33715;DHT22;20043;50.998;4.754;2022-09-09T12:08:27;19.60;99.90
33715;DHT22;20043;50.998;4.754;2022-09-09T12:10:56;19.50;99.90
33715;DHT22;20043;50.998;4.754;2022-09-09T12:13:24;19.50;99.90
33715;DHT22;20043;50.998;4.754;2022-09-09T12:15:52;19.50;99.90
33715;DHT22;20043;50.998;4.754;2022-09-09T12:18:39;19.40;99.90
33715;DHT22;20043;50.998;4.754;2022-09-09T12:24:09;19.30;99.90
33715;DHT22;20043;50.998;4.754;2022-09-09T12:26:55;19.40;99.90
33715;DHT22;20043;50.998;4.754;2022-09-09T12:32:11;19.60;99.90
33715;DHT22;20043;50.998;4.754;2022-09-09T12:34:43;19.60;99.90
33715;DHT22;20043;50.998;4.754;2022-09-09T12:37:37;19.80;99.90
33715;DHT22;20043;50.998;4.754;2022-09-09T12:40:06;20.00;99.90
33715;DHT22;20043;50.998;4.754;2022-09-09T12:42:43;20.20;99.90
33715;DHT22;20043;50.998;4.754;2022-09-09T12:45:23;20.30;99.90
33715;DHT22;20043;50.998;4.754;2022-09-09T12:50:29;20.20;99.90
33715;DHT22;20043;50.998;4.754;2022-09-09T12:55:48;19.80;99.90
33715;DHT22;20043;50.998;4.754;2022-09-09T12:58:17;19.60;99.90
33715;DHT22;20043;50.998;4.754;2022-09-09T13:00:51;19.60;99.90
33715;DHT22;20043;50.998;4.754;2022-09-09T13:03:20;19.60;99.90
33715;DHT22;20043;50.998;4.754;2022-09-09T13:05:49;19.70;99.90
33715;DHT22;20043;50.998;4.754;2022-09-09T13:08:16;19.90;99.90
33715;DHT22;20043;50.998;4.754;2022-09-09T13:10:57;20.10;99.90
33715;DHT22;20043;50.998;4.754;2022-09-09T13:13:30;20.20;99.90
33715;DHT22;20043;50.998;4.754;2022-09-09T13:15:59;20.30;99.90
33715;DHT22;20043;50.998;4.754;2022-09-09T13:18:36;20.20;99.90
33715;DHT22;20043;50.998;4.754;2022-09-09T13:21:03;20.20;99.90
33715;DHT22;20043;50.998;4.754;2022-09-09T13:23:31;20.20;99.90
33715;DHT22;20043;50.998;4.754;2022-09-09T13:26:26;20.20;99.90
33715;DHT22;20043;50.998;4.754;2022-09-09T13:28:53;20.20;99.90
33715;DHT22;20043;50.998;4.754;2022-09-09T13:33:46;20.30;99.90
33715;DHT22;20043;50.998;4.754;2022-09-09T13:36:13;20.50;99.90
33715;DHT22;20043;50.998;4.754;2022-09-09T13:43:56;20.80;99.90
33715;DHT22;20043;50.998;4.754;2022-09-09T13:51:41;20.70;99.90
33715;DHT22;20043;50.998;4.754;2022-09-09T13:54:11;20.50;99.90
33715;DHT22;20043;50.998;4.754;2022-09-09T13:56:38;20.50;99.90
33715;DHT22;20043;50.998;4.754;2022-09-09T13:59:06;20.60;99.90
33715;DHT22;20043;50.998;4.754;2022-09-09T14:01:34;20.50;99.90
33715;DHT22;20043;50.998;4.754;2022-09-09T14:04:00;20.60;99.90
33715;DHT22;20043;50.998;4.754;2022-09-09T14:06:26;20.50;99.90
33715;DHT22;20043;50.998;4.754;2022-09-09T14:08:53;20.40;99.90
33715;DHT22;20043;50.998;4.754;2022-09-09T14:11:20;20.40;99.90
33715;DHT22;20043;50.998;4.754;2022-09-09T14:13:47;20.50;99.90
33715;DHT22;20043;50.998;4.754;2022-09-09T14:16:13;20.50;99.90
33715;DHT22;20043;50.998;4.754;2022-09-09T14:18:39;20.50;99.90
33715;DHT22;20043;50.998;4.754;2022-09-09T14:21:04;20.40;99.90
33715;DHT22;20043;50.998;4.754;2022-09-09T14:23:30;20.40;99.90
33715;DHT22;20043;50.998;4.754;2022-09-09T14:25:57;20.50;99.90
33715;DHT22;20043;50.998;4.754;2022-09-09T14:28:22;20.60;99.90
33715;DHT22;20043;50.998;4.754;2022-09-09T14:30:48;20.70;99.90
33715;DHT22;20043;50.998;4.754;2022-09-09T14:33:15;20.60;99.90
33715;DHT22;20043;50.998;4.754;2022-09-09T14:35:41;20.60;99.90
33715;DHT22;20043;50.998;4.754;2022-09-09T14:38:08;20.70;99.90
33715;DHT22;20043;50.998;4.754;2022-09-09T14:40:35;20.80;99.90
33715;DHT22;20043;50.998;4.754;2022-09-09T14:43:01;21.10;99.90
33715;DHT22;20043;50.998;4.754;2022-09-09T14:45:27;21.10;99.90
33715;DHT22;20043;50.998;4.754;2022-09-09T14:47:53;21.10;99.90
33715;DHT22;20043;50.998;4.754;2022-09-09T14:50:21;21.00;99.90
33715;DHT22;20043;50.998;4.754;2022-09-09T14:52:47;21.10;99.90
33715;DHT22;20043;50.998;4.754;2022-09-09T14:55:14;21.20;99.90
33715;DHT22;20043;50.998;4.754;2022-09-09T14:57:40;21.40;99.90
33715;DHT22;20043;50.998;4.754;2022-09-09T15:00:07;21.40;99.90
33715;DHT22;20043;50.998;4.754;2022-09-09T15:02:34;21.60;99.90
33715;DHT22;20043;50.998;4.754;2022-09-09T15:04:59;21.50;99.90
33715;DHT22;20043;50.998;4.754;2022-09-09T15:07:25;21.30;99.90
33715;DHT22;20043;50.998;4.754;2022-09-09T15:09:52;21.20;99.90
33715;DHT22;20043;50.998;4.754;2022-09-09T15:12:18;21.20;99.90
33715;DHT22;20043;50.998;4.754;2022-09-09T15:14:45;21.20;99.90
33715;DHT22;20043;50.998;4.754;2022-09-09T15:17:11;21.20;99.90
33715;DHT22;20043;50.998;4.754;2022-09-09T15:19:37;21.00;99.90
33715;DHT22;20043;50.998;4.754;2022-09-09T15:22:04;20.90;99.90
33715;DHT22;20043;50.998;4.754;2022-09-09T15:24:34;20.90;99.90
33715;DHT22;20043;50.998;4.754;2022-09-09T15:27:00;20.90;99.90
33715;DHT22;20043;50.998;4.754;2022-09-09T15:29:26;21.00;99.90
33715;DHT22;20043;50.998;4.754;2022-09-09T15:31:54;21.10;99.90
33715;DHT22;20043;50.998;4.754;2022-09-09T15:34:20;21.10;99.90
33715;DHT22;20043;50.998;4.754;2022-09-09T15:36:47;21.10;99.90
33715;DHT22;20043;50.998;4.754;2022-09-09T15:39:16;21.00;99.90
33715;DHT22;20043;50.998;4.754;2022-09-09T15:41:43;21.10;99.90
33715;DHT22;20043;50.998;4.754;2022-09-09T15:44:10;21.20;99.90
33715;DHT22;20043;50.998;4.754;2022-09-09T15:46:38;21.20;99.90
33715;DHT22;20043;50.998;4.754;2022-09-09T15:51:34;21.60;99.90
33715;DHT22;20043;50.998;4.754;2022-09-09T15:54:00;21.60;99.90
33715;DHT22;20043;50.998;4.754;2022-09-09T15:56:26;21.40;99.90
33715;DHT22;20043;50.998;4.754;2022-09-09T15:58:54;21.30;99.90
33715;DHT22;20043;50.998;4.754;2022-09-09T16:01:20;21.30;99.90
33715;DHT22;20043;50.998;4.754;2022-09-09T16:03:46;21.40;99.90
33715;DHT22;20043;50.998;4.754;2022-09-09T16:06:13;21.50;99.90
33715;DHT22;20043;50.998;4.754;2022-09-09T16:08:41;21.40;99.90
33715;DHT22;20043;50.998;4.754;2022-09-09T16:11:13;21.40;99.90
33715;DHT22;20043;50.998;4.754;2022-09-09T16:13:41;21.40;99.90
33715;DHT22;20043;50.998;4.754;2022-09-09T16:16:12;21.40;99.90
33715;DHT22;20043;50.998;4.754;2022-09-09T16:18:41;21.50;99.90
33715;DHT22;20043;50.998;4.754;2022-09-09T16:21:07;21.50;99.90
33715;DHT22;20043;50.998;4.754;2022-09-09T16:23:36;21.40;99.90
33715;DHT22;20043;50.998;4.754;2022-09-09T16:26:02;21.40;99.90
33715;DHT22;20043;50.998;4.754;2022-09-09T16:28:27;21.30;99.90
33715;DHT22;20043;50.998;4.754;2022-09-09T16:30:53;20.90;99.90
33715;DHT22;20043;50.998;4.754;2022-09-09T16:33:19;21.00;99.90
33715;DHT22;20043;50.998;4.754;2022-09-09T16:35:45;21.10;99.90
33715;DHT22;20043;50.998;4.754;2022-09-09T16:38:11;20.80;99.90
33715;DHT22;20043;50.998;4.754;2022-09-09T16:40:37;20.90;99.90
33715;DHT22;20043;50.998;4.754;2022-09-09T16:43:04;20.60;99.90
33715;DHT22;20043;50.998;4.754;2022-09-09T16:45:31;20.40;99.90
33715;DHT22;20043;50.998;4.754;2022-09-09T16:47:58;20.70;99.90
33715;DHT22;20043;50.998;4.754;2022-09-09T16:50:23;20.40;99.90
33715;DHT22;20043;50.998;4.754;2022-09-09T16:52:50;20.30;99.90
33715;DHT22;20043;50.998;4.754;2022-09-09T16:55:16;20.00;99.90
33715;DHT22;20043;50.998;4.754;2022-09-09T16:57:41;20.10;99.90
33715;DHT22;20043;50.998;4.754;2022-09-09T17:00:07;19.90;99.90
33715;DHT22;20043;50.998;4.754;2022-09-09T17:02:33;20.10;99.90
33715;DHT22;20043;50.998;4.754;2022-09-09T17:04:59;20.20;99.90
33715;DHT22;20043;50.998;4.754;2022-09-09T17:07:25;20.30;99.90
33715;DHT22;20043;50.998;4.754;2022-09-09T17:09:50;20.20;99.90
33715;DHT22;20043;50.998;4.754;2022-09-09T17:12:16;20.20;99.90
33715;DHT22;20043;50.998;4.754;2022-09-09T17:14:42;20.30;99.90
33715;DHT22;20043;50.998;4.754;2022-09-09T17:17:08;20.30;99.90
33715;DHT22;20043;50.998;4.754;2022-09-09T17:19:34;20.20;99.90
33715;DHT22;20043;50.998;4.754;2022-09-09T17:21:59;20.00;99.90
33715;DHT22;20043;50.998;4.754;2022-09-09T17:24:26;20.10;99.90
33715;DHT22;20043;50.998;4.754;2022-09-09T17:26:54;20.20;99.90
33715;DHT22;20043;50.998;4.754;2022-09-09T17:29:21;20.20;99.90
33715;DHT22;20043;50.998;4.754;2022-09-09T17:31:46;20.30;99.90
33715;DHT22;20043;50.998;4.754;2022-09-09T17:34:12;20.40;99.90
33715;DHT22;20043;50.998;4.754;2022-09-09T17:36:38;20.50;99.90
33715;DHT22;20043;50.998;4.754;2022-09-09T17:39:04;20.40;99.90
33715;DHT22;20043;50.998;4.754;2022-09-09T17:41:33;20.50;99.90
33715;DHT22;20043;50.998;4.754;2022-09-09T17:43:59;20.50;99.90
33715;DHT22;20043;50.998;4.754;2022-09-09T17:46:30;20.30;99.90
33715;DHT22;20043;50.998;4.754;2022-09-09T17:48:58;20.30;99.90
33715;DHT22;20043;50.998;4.754;2022-09-09T17:51:25;20.30;99.90
33715;DHT22;20043;50.998;4.754;2022-09-09T17:53:54;20.30;99.90
33715;DHT22;20043;50.998;4.754;2022-09-09T17:56:22;20.10;99.90
33715;DHT22;20043;50.998;4.754;2022-09-09T17:58:49;20.10;99.90
33715;DHT22;20043;50.998;4.754;2022-09-09T18:01:18;20.00;99.90
33715;DHT22;20043;50.998;4.754;2022-09-09T18:03:44;19.90;99.90
33715;DHT22;20043;50.998;4.754;2022-09-09T18:06:23;19.80;99.90
33715;DHT22;20043;50.998;4.754;2022-09-09T18:08:52;19.80;99.90
33715;DHT22;20043;50.998;4.754;2022-09-09T18:11:20;19.80;99.90
33715;DHT22;20043;50.998;4.754;2022-09-09T18:13:51;19.60;99.90